sensor_id;sensor_type;location;lat;lon;timestamp;temperature;humidity
16287;DHT22;8251;53.568;10.018;2022-11-02T00:00:55;16.60;69.20
16287;DHT22;8251;53.568;10.018;2022-11-02T00:03:22;16.50;69.10
16287;DHT22;8251;53.568;10.018;2022-11-02T00:05:49;16.50;69.80
16287;DHT22;8251;53.568;10.018;2022-11-02T00:08:16;16.50;70.00
16287;DHT22;8251;53.568;10.018;2022-11-02T00:10:43;16.40;68.80
16287;DHT22;8251;53.568;10.018;2022-11-02T00:13:10;16.50;69.60
16287;DHT22;8251;53.568;10.018;2022-11-02T00:15:37;16.40;69.80
16287;DHT22;8251;53.568;10.018;2022-11-02T00:18:08;16.40;70.00
16287;DHT22;8251;53.568;10.018;2022-11-02T00:20:36;16.50;70.50
16287;DHT22;8251;53.568;10.018;2022-11-02T00:23:04;16.40;70.70
16287;DHT22;8251;53.568;10.018;2022-11-02T00:25:37;16.40;70.30
16287;DHT22;8251;53.568;10.018;2022-11-02T00:28:06;16.40;70.30
16287;DHT22;8251;53.568;10.018;2022-11-02T00:30:34;16.40;70.70
16287;DHT22;8251;53.568;10.018;2022-11-02T00:33:11;16.30;70.70
16287;DHT22;8251;53.568;10.018;2022-11-02T00:35:46;16.30;70.70
16287;DHT22;8251;53.568;10.018;2022-11-02T00:38:13;16.30;70.70
16287;DHT22;8251;53.568;10.018;2022-11-02T00:40:41;16.40;70.80
16287;DHT22;8251;53.568;10.018;2022-11-02T00:43:13;16.40;70.50
16287;DHT22;8251;53.568;10.018;2022-11-02T00:45:46;16.30;70.70
16287;DHT22;8251;53.568;10.018;2022-11-02T00:48:15;16.30;70.70
16287;DHT22;8251;53.568;10.018;2022-11-02T00:50:43;16.30;71.10
16287;DHT22;8251;53.568;10.018;2022-11-02T00:53:20;16.30;70.80
16287;DHT22;8251;53.568;10.018;2022-11-02T00:55:50;16.30;70.50
16287;DHT22;8251;53.568;10.018;2022-11-02T00:58:18;16.30;71.50
16287;DHT22;8251;53.568;10.018;2022-11-02T01:00:54;16.30;71.30
16287;DHT22;8251;53.568;10.018;2022-11-02T01:03:31;16.40;71.30
16287;DHT22;8251;53.568;10.018;2022-11-02T01:06:07;16.30;71.90
16287;DHT22;8251;53.568;10.018;2022-11-02T01:08:36;16.20;70.10
16287;DHT22;8251;53.568;10.018;2022-11-02T01:11:13;16.30;70.30
16287;DHT22;8251;53.568;10.018;2022-11-02T01:13:41;16.30;70.40
16287;DHT22;8251;53.568;10.018;2022-11-02T01:16:10;16.30;70.00
16287;DHT22;8251;53.568;10.018;2022-11-02T01:18:46;16.20;70.10
16287;DHT22;8251;53.568;10.018;2022-11-02T01:21:25;16.30;70.50
16287;DHT22;8251;53.568;10.018;2022-11-02T01:23:56;16.20;70.30
16287;DHT22;8251;53.568;10.018;2022-11-02T01:26:26;16.30;70.10
16287;DHT22;8251;53.568;10.018;2022-11-02T01:28:56;16.30;70.10
16287;DHT22;8251;53.568;10.018;2022-11-02T01:31:23;16.20;70.30
16287;DHT22;8251;53.568;10.018;2022-11-02T01:33:59;16.10;70.60
16287;DHT22;8251;53.568;10.018;2022-11-02T01:36:31;16.10;70.60
16287;DHT22;8251;53.568;10.018;2022-11-02T01:39:00;16.10;70.70
16287;DHT22;8251;53.568;10.018;2022-11-02T01:41:27;16.10;70.60
16287;DHT22;8251;53.568;10.018;2022-11-02T01:44:01;16.10;70.70
16287;DHT22;8251;53.568;10.018;2022-11-02T01:46:43;16.00;70.90
16287;DHT22;8251;53.568;10.018;2022-11-02T01:49:19;16.10;71.20
16287;DHT22;8251;53.568;10.018;2022-11-02T01:51:58;16.00;70.20
16287;DHT22;8251;53.568;10.018;2022-11-02T01:54:33;16.00;71.10
16287;DHT22;8251;53.568;10.018;2022-11-02T01:57:08;16.00;71.10
16287;DHT22;8251;53.568;10.018;2022-11-02T01:59:44;15.90;70.90
16287;DHT22;8251;53.568;10.018;2022-11-02T02:02:18;15.90;71.30
16287;DHT22;8251;53.568;10.018;2022-11-02T02:05:05;15.90;71.40
16287;DHT22;8251;53.568;10.018;2022-11-02T02:07:48;16.00;71.40
16287;DHT22;8251;53.568;10.018;2022-11-02T02:10:19;15.90;71.50
16287;DHT22;8251;53.568;10.018;2022-11-02T02:12:47;16.00;71.70
16287;DHT22;8251;53.568;10.018;2022-11-02T02:15:14;16.00;71.30
16287;DHT22;8251;53.568;10.018;2022-11-02T02:17:46;16.00;71.50
16287;DHT22;8251;53.568;10.018;2022-11-02T02:20:27;16.00;71.30
16287;DHT22;8251;53.568;10.018;2022-11-02T02:23:12;16.00;71.30
16287;DHT22;8251;53.568;10.018;2022-11-02T02:25:58;16.00;70.90
16287;DHT22;8251;53.568;10.018;2022-11-02T02:28:39;16.00;71.10
16287;DHT22;8251;53.568;10.018;2022-11-02T02:34:50;15.90;70.60
16287;DHT22;8251;53.568;10.018;2022-11-02T02:37:26;15.90;71.10
16287;DHT22;8251;53.568;10.018;2022-11-02T02:40:00;15.90;71.30
16287;DHT22;8251;53.568;10.018;2022-11-02T02:42:32;15.90;71.20
16287;DHT22;8251;53.568;10.018;2022-11-02T02:45:12;15.90;71.30
16287;DHT22;8251;53.568;10.018;2022-11-02T02:47:48;15.90;71.20
16287;DHT22;8251;53.568;10.018;2022-11-02T02:50:19;15.90;71.70
16287;DHT22;8251;53.568;10.018;2022-11-02T02:52:50;15.90;71.90
16287;DHT22;8251;53.568;10.018;2022-11-02T02:55:26;15.90;72.00
16287;DHT22;8251;53.568;10.018;2022-11-02T02:58:00;15.90;72.10
16287;DHT22;8251;53.568;10.018;2022-11-02T03:00:35;15.90;72.10
16287;DHT22;8251;53.568;10.018;2022-11-02T03:03:11;15.90;71.80
16287;DHT22;8251;53.568;10.018;2022-11-02T03:05:52;15.90;71.40
16287;DHT22;8251;53.568;10.018;2022-11-02T03:08:25;15.90;71.60
16287;DHT22;8251;53.568;10.018;2022-11-02T03:10:58;15.90;71.50
16287;DHT22;8251;53.568;10.018;2022-11-02T03:13:46;15.90;71.80
16287;DHT22;8251;53.568;10.018;2022-11-02T03:16:30;15.90;71.70
16287;DHT22;8251;53.568;10.018;2022-11-02T03:19:17;15.90;72.30
16287;DHT22;8251;53.568;10.018;2022-11-02T03:21:49;15.90;71.60
16287;DHT22;8251;53.568;10.018;2022-11-02T03:24:26;15.90;72.00
16287;DHT22;8251;53.568;10.018;2022-11-02T03:27:07;16.00;72.20
16287;DHT22;8251;53.568;10.018;2022-11-02T03:29:41;15.90;72.60
16287;DHT22;8251;53.568;10.018;2022-11-02T03:32:27;15.90;72.70
16287;DHT22;8251;53.568;10.018;2022-11-02T03:35:05;15.90;72.50
16287;DHT22;8251;53.568;10.018;2022-11-02T03:37:40;15.80;72.80
16287;DHT22;8251;53.568;10.018;2022-11-02T03:40:12;15.80;73.10
16287;DHT22;8251;53.568;10.018;2022-11-02T03:42:42;15.80;73.00
16287;DHT22;8251;53.568;10.018;2022-11-02T03:45:14;15.80;73.20
16287;DHT22;8251;53.568;10.018;2022-11-02T03:47:45;15.80;73.30
16287;DHT22;8251;53.568;10.018;2022-11-02T03:50:17;15.80;73.70
16287;DHT22;8251;53.568;10.018;2022-11-02T03:52:49;15.80;73.50
16287;DHT22;8251;53.568;10.018;2022-11-02T03:55:21;15.90;73.50
16287;DHT22;8251;53.568;10.018;2022-11-02T03:57:55;15.80;72.90
16287;DHT22;8251;53.568;10.018;2022-11-02T04:00:34;15.80;73.30
16287;DHT22;8251;53.568;10.018;2022-11-02T04:03:05;15.80;73.30
16287;DHT22;8251;53.568;10.018;2022-11-02T04:05:36;15.90;73.40
16287;DHT22;8251;53.568;10.018;2022-11-02T04:08:05;15.80;73.70
16287;DHT22;8251;53.568;10.018;2022-11-02T04:10:51;15.80;73.50
16287;DHT22;8251;53.568;10.018;2022-11-02T04:13:36;15.90;74.00
16287;DHT22;8251;53.568;10.018;2022-11-02T04:16:21;15.90;74.00
16287;DHT22;8251;53.568;10.018;2022-11-02T04:18:51;15.80;74.40
16287;DHT22;8251;53.568;10.018;2022-11-02T04:21:38;15.90;74.50
16287;DHT22;8251;53.568;10.018;2022-11-02T04:24:08;15.90;74.20
16287;DHT22;8251;53.568;10.018;2022-11-02T04:26:54;15.80;74.10
16287;DHT22;8251;53.568;10.018;2022-11-02T04:29:26;15.80;74.10
16287;DHT22;8251;53.568;10.018;2022-11-02T04:31:56;15.80;74.10
16287;DHT22;8251;53.568;10.018;2022-11-02T04:34:26;15.80;74.10
16287;DHT22;8251;53.568;10.018;2022-11-02T04:36:55;15.80;74.20
16287;DHT22;8251;53.568;10.018;2022-11-02T04:39:25;15.80;74.10
16287;DHT22;8251;53.568;10.018;2022-11-02T04:41:54;15.80;74.30
16287;DHT22;8251;53.568;10.018;2022-11-02T04:44:23;15.80;74.40
16287;DHT22;8251;53.568;10.018;2022-11-02T04:47:00;15.80;74.20
16287;DHT22;8251;53.568;10.018;2022-11-02T04:49:34;15.80;74.40
16287;DHT22;8251;53.568;10.018;2022-11-02T04:52:01;15.70;74.10
16287;DHT22;8251;53.568;10.018;2022-11-02T04:54:29;15.60;74.40
16287;DHT22;8251;53.568;10.018;2022-11-02T04:56:58;15.60;74.70
16287;DHT22;8251;53.568;10.018;2022-11-02T04:59:35;15.60;74.90
16287;DHT22;8251;53.568;10.018;2022-11-02T05:02:02;15.60;75.00
16287;DHT22;8251;53.568;10.018;2022-11-02T05:04:34;15.60;75.10
16287;DHT22;8251;53.568;10.018;2022-11-02T05:07:03;15.60;75.20
16287;DHT22;8251;53.568;10.018;2022-11-02T05:09:34;15.50;75.00
16287;DHT22;8251;53.568;10.018;2022-11-02T05:12:03;15.40;75.30
16287;DHT22;8251;53.568;10.018;2022-11-02T05:14:34;15.40;75.70
16287;DHT22;8251;53.568;10.018;2022-11-02T05:17:04;15.40;75.70
16287;DHT22;8251;53.568;10.018;2022-11-02T05:19:36;15.50;75.60
16287;DHT22;8251;53.568;10.018;2022-11-02T05:22:09;15.50;75.50
16287;DHT22;8251;53.568;10.018;2022-11-02T05:24:36;15.40;75.90
16287;DHT22;8251;53.568;10.018;2022-11-02T05:27:02;15.50;76.30
16287;DHT22;8251;53.568;10.018;2022-11-02T05:29:30;15.50;76.30
16287;DHT22;8251;53.568;10.018;2022-11-02T05:32:00;15.50;76.10
16287;DHT22;8251;53.568;10.018;2022-11-02T05:34:27;15.50;75.90
16287;DHT22;8251;53.568;10.018;2022-11-02T05:37:04;15.50;76.10
16287;DHT22;8251;53.568;10.018;2022-11-02T05:39:33;15.50;76.80
16287;DHT22;8251;53.568;10.018;2022-11-02T05:42:03;15.50;76.20
16287;DHT22;8251;53.568;10.018;2022-11-02T05:44:32;15.50;76.20
16287;DHT22;8251;53.568;10.018;2022-11-02T05:47:02;15.60;76.10
16287;DHT22;8251;53.568;10.018;2022-11-02T05:49:30;15.50;76.10
16287;DHT22;8251;53.568;10.018;2022-11-02T05:51:58;15.50;76.10
16287;DHT22;8251;53.568;10.018;2022-11-02T05:54:29;15.50;76.10
16287;DHT22;8251;53.568;10.018;2022-11-02T05:56:59;15.50;76.20
16287;DHT22;8251;53.568;10.018;2022-11-02T05:59:27;15.50;76.30
16287;DHT22;8251;53.568;10.018;2022-11-02T06:01:58;15.50;76.20
16287;DHT22;8251;53.568;10.018;2022-11-02T06:04:25;15.50;76.20
16287;DHT22;8251;53.568;10.018;2022-11-02T06:07:04;15.50;76.20
16287;DHT22;8251;53.568;10.018;2022-11-02T06:09:45;15.50;76.30
16287;DHT22;8251;53.568;10.018;2022-11-02T06:12:13;15.40;76.30
16287;DHT22;8251;53.568;10.018;2022-11-02T06:14:41;15.40;76.40
16287;DHT22;8251;53.568;10.018;2022-11-02T06:17:10;15.40;76.60
16287;DHT22;8251;53.568;10.018;2022-11-02T06:19:38;15.40;76.90
16287;DHT22;8251;53.568;10.018;2022-11-02T06:22:06;15.30;76.90
16287;DHT22;8251;53.568;10.018;2022-11-02T06:24:35;15.30;77.00
16287;DHT22;8251;53.568;10.018;2022-11-02T06:27:07;15.30;77.40
16287;DHT22;8251;53.568;10.018;2022-11-02T06:29:34;15.30;77.30
16287;DHT22;8251;53.568;10.018;2022-11-02T06:32:01;15.40;77.50
16287;DHT22;8251;53.568;10.018;2022-11-02T06:34:29;15.40;77.40
16287;DHT22;8251;53.568;10.018;2022-11-02T06:37:00;15.40;77.50
16287;DHT22;8251;53.568;10.018;2022-11-02T06:39:27;15.50;77.50
16287;DHT22;8251;53.568;10.018;2022-11-02T06:41:54;15.60;77.80
16287;DHT22;8251;53.568;10.018;2022-11-02T06:44:25;15.60;77.80
16287;DHT22;8251;53.568;10.018;2022-11-02T06:46:53;15.70;78.60
16287;DHT22;8251;53.568;10.018;2022-11-02T06:49:26;15.70;77.80
16287;DHT22;8251;53.568;10.018;2022-11-02T06:51:54;15.70;77.60
16287;DHT22;8251;53.568;10.018;2022-11-02T06:54:21;15.80;77.70
16287;DHT22;8251;53.568;10.018;2022-11-02T06:56:48;15.70;77.60
16287;DHT22;8251;53.568;10.018;2022-11-02T06:59:17;15.80;77.90
16287;DHT22;8251;53.568;10.018;2022-11-02T07:01:46;15.80;77.80
16287;DHT22;8251;53.568;10.018;2022-11-02T07:04:17;15.80;77.70
16287;DHT22;8251;53.568;10.018;2022-11-02T07:06:46;15.90;77.90
16287;DHT22;8251;53.568;10.018;2022-11-02T07:09:14;15.90;78.10
16287;DHT22;8251;53.568;10.018;2022-11-02T07:11:41;15.80;78.00
16287;DHT22;8251;53.568;10.018;2022-11-02T07:14:08;15.80;77.60
16287;DHT22;8251;53.568;10.018;2022-11-02T07:16:36;15.80;77.90
16287;DHT22;8251;53.568;10.018;2022-11-02T07:19:05;15.80;77.70
16287;DHT22;8251;53.568;10.018;2022-11-02T07:21:33;15.80;77.50
16287;DHT22;8251;53.568;10.018;2022-11-02T07:24:02;15.80;77.40
16287;DHT22;8251;53.568;10.018;2022-11-02T07:26:30;15.70;77.40
16287;DHT22;8251;53.568;10.018;2022-11-02T07:28:59;15.80;78.00
16287;DHT22;8251;53.568;10.018;2022-11-02T07:31:29;15.80;77.60
16287;DHT22;8251;53.568;10.018;2022-11-02T07:33:57;15.80;77.80
16287;DHT22;8251;53.568;10.018;2022-11-02T07:36:25;15.80;77.20
16287;DHT22;8251;53.568;10.018;2022-11-02T07:38:52;15.90;77.50
16287;DHT22;8251;53.568;10.018;2022-11-02T07:41:20;15.90;77.90
16287;DHT22;8251;53.568;10.018;2022-11-02T07:43:48;16.00;77.50
16287;DHT22;8251;53.568;10.018;2022-11-02T07:46:15;16.10;77.40
16287;DHT22;8251;53.568;10.018;2022-11-02T07:48:42;16.00;76.60
16287;DHT22;8251;53.568;10.018;2022-11-02T07:51:10;16.00;76.70
16287;DHT22;8251;53.568;10.018;2022-11-02T07:53:41;16.10;76.80
16287;DHT22;8251;53.568;10.018;2022-11-02T07:56:12;16.20;76.50
16287;DHT22;8251;53.568;10.018;2022-11-02T07:58:42;16.20;76.40
16287;DHT22;8251;53.568;10.018;2022-11-02T08:01:10;16.30;76.10
16287;DHT22;8251;53.568;10.018;2022-11-02T08:03:37;16.30;75.80
16287;DHT22;8251;53.568;10.018;2022-11-02T08:06:04;16.30;75.80
16287;DHT22;8251;53.568;10.018;2022-11-02T08:08:31;16.40;76.20
16287;DHT22;8251;53.568;10.018;2022-11-02T08:11:05;16.40;76.00
16287;DHT22;8251;53.568;10.018;2022-11-02T08:13:36;16.40;76.10
16287;DHT22;8251;53.568;10.018;2022-11-02T08:16:04;16.40;75.20
16287;DHT22;8251;53.568;10.018;2022-11-02T08:18:34;16.30;75.00
16287;DHT22;8251;53.568;10.018;2022-11-02T08:21:01;16.30;75.30
16287;DHT22;8251;53.568;10.018;2022-11-02T08:23:29;16.40;76.30
16287;DHT22;8251;53.568;10.018;2022-11-02T08:25:57;16.40;75.70
16287;DHT22;8251;53.568;10.018;2022-11-02T08:28:29;16.40;75.60
16287;DHT22;8251;53.568;10.018;2022-11-02T08:31:02;16.30;75.60
16287;DHT22;8251;53.568;10.018;2022-11-02T08:33:33;16.30;75.80
16287;DHT22;8251;53.568;10.018;2022-11-02T08:36:05;16.30;76.10
16287;DHT22;8251;53.568;10.018;2022-11-02T08:38:32;16.20;75.30
16287;DHT22;8251;53.568;10.018;2022-11-02T08:41:07;16.20;75.80
16287;DHT22;8251;53.568;10.018;2022-11-02T08:43:39;16.20;75.90
16287;DHT22;8251;53.568;10.018;2022-11-02T08:46:07;16.10;75.80
16287;DHT22;8251;53.568;10.018;2022-11-02T08:48:35;16.10;75.80
16287;DHT22;8251;53.568;10.018;2022-11-02T08:51:03;16.20;76.00
16287;DHT22;8251;53.568;10.018;2022-11-02T08:53:36;16.30;76.20
16287;DHT22;8251;53.568;10.018;2022-11-02T08:56:04;16.40;76.20
16287;DHT22;8251;53.568;10.018;2022-11-02T08:58:35;16.40;75.50
16287;DHT22;8251;53.568;10.018;2022-11-02T09:01:02;16.30;74.00
16287;DHT22;8251;53.568;10.018;2022-11-02T09:03:30;16.20;75.70
16287;DHT22;8251;53.568;10.018;2022-11-02T09:06:00;16.30;75.50
16287;DHT22;8251;53.568;10.018;2022-11-02T09:08:29;16.40;75.80
16287;DHT22;8251;53.568;10.018;2022-11-02T09:11:00;16.50;75.20
16287;DHT22;8251;53.568;10.018;2022-11-02T09:13:28;16.50;75.00
16287;DHT22;8251;53.568;10.018;2022-11-02T09:15:57;16.40;74.80
16287;DHT22;8251;53.568;10.018;2022-11-02T09:18:26;16.40;75.30
16287;DHT22;8251;53.568;10.018;2022-11-02T09:20:54;16.40;75.20
16287;DHT22;8251;53.568;10.018;2022-11-02T09:23:22;16.30;74.80
16287;DHT22;8251;53.568;10.018;2022-11-02T09:25:49;16.40;75.50
16287;DHT22;8251;53.568;10.018;2022-11-02T09:28:19;16.40;74.80
16287;DHT22;8251;53.568;10.018;2022-11-02T09:30:49;16.50;75.40
16287;DHT22;8251;53.568;10.018;2022-11-02T09:33:23;16.50;75.40
16287;DHT22;8251;53.568;10.018;2022-11-02T09:35:51;16.70;74.80
16287;DHT22;8251;53.568;10.018;2022-11-02T09:38:19;16.60;74.20
16287;DHT22;8251;53.568;10.018;2022-11-02T09:40:58;16.50;74.00
16287;DHT22;8251;53.568;10.018;2022-11-02T09:43:37;16.50;74.00
16287;DHT22;8251;53.568;10.018;2022-11-02T09:46:08;16.40;73.80
16287;DHT22;8251;53.568;10.018;2022-11-02T09:48:40;16.40;73.90
16287;DHT22;8251;53.568;10.018;2022-11-02T09:51:13;16.30;74.80
16287;DHT22;8251;53.568;10.018;2022-11-02T09:53:54;16.40;74.10
16287;DHT22;8251;53.568;10.018;2022-11-02T09:56:22;16.30;74.80
16287;DHT22;8251;53.568;10.018;2022-11-02T09:58:56;16.30;74.80
16287;DHT22;8251;53.568;10.018;2022-11-02T10:01:46;16.40;73.70
16287;DHT22;8251;53.568;10.018;2022-11-02T10:04:54;16.30;74.80
16287;DHT22;8251;53.568;10.018;2022-11-02T10:07:34;16.30;73.70
16287;DHT22;8251;53.568;10.018;2022-11-02T10:10:12;16.30;73.80
16287;DHT22;8251;53.568;10.018;2022-11-02T10:12:49;16.30;74.10
16287;DHT22;8251;53.568;10.018;2022-11-02T10:15:20;16.30;74.00
16287;DHT22;8251;53.568;10.018;2022-11-02T10:17:52;16.30;74.80
16287;DHT22;8251;53.568;10.018;2022-11-02T10:20:25;16.10;78.60
16287;DHT22;8251;53.568;10.018;2022-11-02T10:22:57;16.00;80.40
16287;DHT22;8251;53.568;10.018;2022-11-02T10:25:28;15.90;81.00
16287;DHT22;8251;53.568;10.018;2022-11-02T10:28:03;15.90;81.60
16287;DHT22;8251;53.568;10.018;2022-11-02T10:30:36;15.90;82.20
16287;DHT22;8251;53.568;10.018;2022-11-02T10:33:12;15.90;82.90
16287;DHT22;8251;53.568;10.018;2022-11-02T10:35:57;15.90;83.20
16287;DHT22;8251;53.568;10.018;2022-11-02T10:38:36;16.00;83.30
16287;DHT22;8251;53.568;10.018;2022-11-02T10:41:18;16.20;83.90
16287;DHT22;8251;53.568;10.018;2022-11-02T10:44:09;16.10;83.20
16287;DHT22;8251;53.568;10.018;2022-11-02T10:46:49;16.20;83.20
16287;DHT22;8251;53.568;10.018;2022-11-02T10:50:01;16.20;82.80
16287;DHT22;8251;53.568;10.018;2022-11-02T10:52:39;16.20;81.30
16287;DHT22;8251;53.568;10.018;2022-11-02T10:55:17;16.10;81.20
16287;DHT22;8251;53.568;10.018;2022-11-02T10:57:47;16.10;81.20
16287;DHT22;8251;53.568;10.018;2022-11-02T11:00:26;16.10;81.00
16287;DHT22;8251;53.568;10.018;2022-11-02T11:03:09;16.20;80.80
16287;DHT22;8251;53.568;10.018;2022-11-02T11:05:53;16.10;79.70
16287;DHT22;8251;53.568;10.018;2022-11-02T11:08:38;16.10;79.70
16287;DHT22;8251;53.568;10.018;2022-11-02T11:11:23;16.10;79.90
16287;DHT22;8251;53.568;10.018;2022-11-02T11:14:01;16.00;79.40
16287;DHT22;8251;53.568;10.018;2022-11-02T11:16:35;16.10;79.30
16287;DHT22;8251;53.568;10.018;2022-11-02T11:19:22;16.10;79.70
16287;DHT22;8251;53.568;10.018;2022-11-02T11:21:52;16.10;79.30
16287;DHT22;8251;53.568;10.018;2022-11-02T11:24:29;16.10;78.90
16287;DHT22;8251;53.568;10.018;2022-11-02T11:27:02;16.10;79.20
16287;DHT22;8251;53.568;10.018;2022-11-02T11:29:31;16.20;78.40
16287;DHT22;8251;53.568;10.018;2022-11-02T11:32:00;16.20;78.50
16287;DHT22;8251;53.568;10.018;2022-11-02T11:34:32;16.30;78.90
16287;DHT22;8251;53.568;10.018;2022-11-02T11:37:06;16.30;77.50
16287;DHT22;8251;53.568;10.018;2022-11-02T11:39:39;16.20;77.50
16287;DHT22;8251;53.568;10.018;2022-11-02T11:42:16;16.30;78.20
16287;DHT22;8251;53.568;10.018;2022-11-02T11:44:54;16.20;77.40
16287;DHT22;8251;53.568;10.018;2022-11-02T11:47:28;16.20;77.30
16287;DHT22;8251;53.568;10.018;2022-11-02T11:50:04;16.20;77.50
16287;DHT22;8251;53.568;10.018;2022-11-02T11:52:33;16.10;77.50
16287;DHT22;8251;53.568;10.018;2022-11-02T11:55:20;16.10;76.60
16287;DHT22;8251;53.568;10.018;2022-11-02T11:58:04;16.10;77.40
16287;DHT22;8251;53.568;10.018;2022-11-02T12:00:32;16.10;76.60
16287;DHT22;8251;53.568;10.018;2022-11-02T12:03:04;16.00;77.20
16287;DHT22;8251;53.568;10.018;2022-11-02T12:05:41;15.90;77.50
16287;DHT22;8251;53.568;10.018;2022-11-02T12:08:32;15.80;79.60
16287;DHT22;8251;53.568;10.018;2022-11-02T12:11:17;15.90;80.20
16287;DHT22;8251;53.568;10.018;2022-11-02T12:14:05;15.70;79.50
16287;DHT22;8251;53.568;10.018;2022-11-02T12:16:49;15.80;79.90
16287;DHT22;8251;53.568;10.018;2022-11-02T12:19:25;15.80;79.60
16287;DHT22;8251;53.568;10.018;2022-11-02T12:22:02;15.80;79.70
16287;DHT22;8251;53.568;10.018;2022-11-02T12:24:46;15.70;79.40
16287;DHT22;8251;53.568;10.018;2022-11-02T12:27:30;15.80;79.80
16287;DHT22;8251;53.568;10.018;2022-11-02T12:30:14;15.70;80.00
16287;DHT22;8251;53.568;10.018;2022-11-02T12:33:02;15.70;80.00
16287;DHT22;8251;53.568;10.018;2022-11-02T12:35:55;15.70;79.10
16287;DHT22;8251;53.568;10.018;2022-11-02T12:38:50;15.70;79.20
16287;DHT22;8251;53.568;10.018;2022-11-02T12:41:28;15.70;79.20
16287;DHT22;8251;53.568;10.018;2022-11-02T12:44:12;15.70;79.70
16287;DHT22;8251;53.568;10.018;2022-11-02T12:46:47;15.70;79.50
16287;DHT22;8251;53.568;10.018;2022-11-02T12:49:32;15.70;79.40
16287;DHT22;8251;53.568;10.018;2022-11-02T12:52:08;15.80;79.20
16287;DHT22;8251;53.568;10.018;2022-11-02T12:54:43;15.80;79.10
16287;DHT22;8251;53.568;10.018;2022-11-02T12:57:17;15.80;78.00
16287;DHT22;8251;53.568;10.018;2022-11-02T12:59:50;15.80;78.10
16287;DHT22;8251;53.568;10.018;2022-11-02T13:02:28;15.90;77.70
16287;DHT22;8251;53.568;10.018;2022-11-02T13:05:00;15.80;77.20
16287;DHT22;8251;53.568;10.018;2022-11-02T13:07:38;15.80;76.30
16287;DHT22;8251;53.568;10.018;2022-11-02T13:10:14;15.80;75.90
16287;DHT22;8251;53.568;10.018;2022-11-02T13:12:46;15.80;76.20
16287;DHT22;8251;53.568;10.018;2022-11-02T13:15:18;15.80;76.00
16287;DHT22;8251;53.568;10.018;2022-11-02T13:17:53;15.70;74.90
16287;DHT22;8251;53.568;10.018;2022-11-02T13:20:25;15.60;75.40
16287;DHT22;8251;53.568;10.018;2022-11-02T13:22:55;15.70;75.50
16287;DHT22;8251;53.568;10.018;2022-11-02T13:25:27;15.70;76.70
16287;DHT22;8251;53.568;10.018;2022-11-02T13:28:00;15.80;78.00
16287;DHT22;8251;53.568;10.018;2022-11-02T13:30:30;15.50;77.80
16287;DHT22;8251;53.568;10.018;2022-11-02T13:33:02;15.40;77.80
16287;DHT22;8251;53.568;10.018;2022-11-02T13:35:33;15.30;78.20
16287;DHT22;8251;53.568;10.018;2022-11-02T13:38:11;15.30;78.60
16287;DHT22;8251;53.568;10.018;2022-11-02T13:40:48;15.20;78.60
16287;DHT22;8251;53.568;10.018;2022-11-02T13:46:36;15.20;80.30
16287;DHT22;8251;53.568;10.018;2022-11-02T13:49:12;15.30;80.30
16287;DHT22;8251;53.568;10.018;2022-11-02T13:51:43;15.30;81.20
16287;DHT22;8251;53.568;10.018;2022-11-02T13:54:16;15.40;81.10
16287;DHT22;8251;53.568;10.018;2022-11-02T13:56:49;15.40;81.60
16287;DHT22;8251;53.568;10.018;2022-11-02T13:59:19;15.50;81.80
16287;DHT22;8251;53.568;10.018;2022-11-02T14:01:53;15.50;82.00
16287;DHT22;8251;53.568;10.018;2022-11-02T14:04:22;15.60;82.20
16287;DHT22;8251;53.568;10.018;2022-11-02T14:06:56;15.60;82.30
16287;DHT22;8251;53.568;10.018;2022-11-02T14:09:31;15.60;81.40
16287;DHT22;8251;53.568;10.018;2022-11-02T14:12:44;15.60;81.50
16287;DHT22;8251;53.568;10.018;2022-11-02T14:15:43;15.80;80.70
16287;DHT22;8251;53.568;10.018;2022-11-02T14:18:14;15.90;80.60
16287;DHT22;8251;53.568;10.018;2022-11-02T14:20:43;15.90;80.20
16287;DHT22;8251;53.568;10.018;2022-11-02T14:23:38;15.90;80.00
16287;DHT22;8251;53.568;10.018;2022-11-02T14:29:36;15.80;79.50
16287;DHT22;8251;53.568;10.018;2022-11-02T14:32:09;15.70;78.50
16287;DHT22;8251;53.568;10.018;2022-11-02T14:34:57;15.80;77.90
16287;DHT22;8251;53.568;10.018;2022-11-02T14:37:41;15.70;77.60
16287;DHT22;8251;53.568;10.018;2022-11-02T14:40:23;15.80;78.40
16287;DHT22;8251;53.568;10.018;2022-11-02T14:43:13;15.80;77.10
16287;DHT22;8251;53.568;10.018;2022-11-02T14:46:01;15.80;77.70
16287;DHT22;8251;53.568;10.018;2022-11-02T14:48:44;15.80;77.70
16287;DHT22;8251;53.568;10.018;2022-11-02T14:51:18;15.80;77.40
16287;DHT22;8251;53.568;10.018;2022-11-02T14:53:53;15.80;77.20
16287;DHT22;8251;53.568;10.018;2022-11-02T14:56:21;15.80;76.50
16287;DHT22;8251;53.568;10.018;2022-11-02T14:58:53;15.80;76.20
16287;DHT22;8251;53.568;10.018;2022-11-02T15:01:21;15.80;76.40
16287;DHT22;8251;53.568;10.018;2022-11-02T15:03:49;15.80;76.60
16287;DHT22;8251;53.568;10.018;2022-11-02T15:06:21;15.80;75.90
16287;DHT22;8251;53.568;10.018;2022-11-02T15:08:53;15.80;75.30
16287;DHT22;8251;53.568;10.018;2022-11-02T15:11:42;15.70;74.90
16287;DHT22;8251;53.568;10.018;2022-11-02T15:14:53;15.80;75.30
16287;DHT22;8251;53.568;10.018;2022-11-02T15:20:36;15.80;74.10
16287;DHT22;8251;53.568;10.018;2022-11-02T15:23:25;15.70;74.10
16287;DHT22;8251;53.568;10.018;2022-11-02T15:25:58;15.80;73.50
16287;DHT22;8251;53.568;10.018;2022-11-02T15:28:28;15.70;72.40
16287;DHT22;8251;53.568;10.018;2022-11-02T15:31:00;15.70;73.00
16287;DHT22;8251;53.568;10.018;2022-11-02T15:33:34;15.70;72.80
16287;DHT22;8251;53.568;10.018;2022-11-02T15:36:07;15.70;72.80
16287;DHT22;8251;53.568;10.018;2022-11-02T15:38:40;15.70;73.20
16287;DHT22;8251;53.568;10.018;2022-11-02T15:41:22;15.70;73.20
16287;DHT22;8251;53.568;10.018;2022-11-02T15:44:03;15.70;72.90
16287;DHT22;8251;53.568;10.018;2022-11-02T15:46:47;15.70;72.40
16287;DHT22;8251;53.568;10.018;2022-11-02T15:49:31;15.60;72.50
16287;DHT22;8251;53.568;10.018;2022-11-02T15:52:04;15.60;72.60
16287;DHT22;8251;53.568;10.018;2022-11-02T15:54:58;15.60;72.70
16287;DHT22;8251;53.568;10.018;2022-11-02T15:57:39;15.60;72.80
16287;DHT22;8251;53.568;10.018;2022-11-02T16:00:16;15.50;73.20
16287;DHT22;8251;53.568;10.018;2022-11-02T16:02:45;15.50;73.70
16287;DHT22;8251;53.568;10.018;2022-11-02T16:05:19;15.60;74.10
16287;DHT22;8251;53.568;10.018;2022-11-02T16:07:53;15.60;74.30
16287;DHT22;8251;53.568;10.018;2022-11-02T16:10:25;15.60;73.40
16287;DHT22;8251;53.568;10.018;2022-11-02T16:13:10;15.60;73.50
16287;DHT22;8251;53.568;10.018;2022-11-02T16:15:41;15.60;73.30
16287;DHT22;8251;53.568;10.018;2022-11-02T16:18:25;15.50;73.10
16287;DHT22;8251;53.568;10.018;2022-11-02T16:20:55;15.50;73.00
16287;DHT22;8251;53.568;10.018;2022-11-02T16:23:28;15.50;73.20
16287;DHT22;8251;53.568;10.018;2022-11-02T16:26:07;15.50;72.60